createdAt,value
2017-10-31T00:00:08.775Z,7.57
2017-10-31T00:02:35.142Z,4.20
2017-10-31T00:05:01.473Z,4.10
2017-10-31T00:07:28.485Z,4.63
2017-10-31T00:09:56.548Z,4.00
2017-10-31T00:12:22.844Z,4.47
2017-10-31T00:14:49.119Z,7.00
2017-10-31T00:17:15.403Z,9.07
2017-10-31T00:19:41.890Z,6.83
2017-10-31T00:22:08.166Z,4.57
2017-10-31T00:24:34.467Z,6.17
2017-10-31T00:27:01.721Z,2.90
2017-10-31T00:29:28.792Z,5.37
2017-10-31T00:31:55.075Z,7.60
2017-10-31T00:34:22.834Z,5.90
2017-10-31T00:36:50.602Z,4.30
2017-10-31T00:39:16.896Z,3.63
2017-10-31T00:41:43.198Z,7.93
2017-10-31T00:44:09.480Z,4.30
2017-10-31T00:46:35.778Z,3.40
2017-10-31T00:49:02.072Z,3.40
2017-10-31T00:51:29.101Z,4.30
2017-10-31T00:53:55.390Z,5.93
2017-10-31T00:56:21.680Z,4.27
2017-10-31T00:58:48.705Z,5.37
2017-10-31T01:01:15.008Z,8.17
2017-10-31T01:03:41.300Z,8.10
2017-10-31T01:06:07.669Z,8.67
2017-10-31T01:08:33.950Z,9.17
2017-10-31T01:11:00.261Z,7.87
2017-10-31T01:13:27.284Z,5.37
2017-10-31T01:15:53.581Z,4.87
2017-10-31T01:18:19.877Z,4.80
2017-10-31T01:20:46.895Z,9.40
2017-10-31T01:23:13.200Z,4.83
2017-10-31T01:25:39.490Z,4.10
2017-10-31T01:28:06.515Z,5.77
2017-10-31T01:30:32.811Z,3.73
2017-10-31T01:32:59.118Z,5.80
2017-10-31T01:35:25.387Z,6.13
2017-10-31T01:37:51.670Z,6.23
2017-10-31T01:40:18.046Z,5.17
2017-10-31T01:42:44.362Z,6.27
2017-10-31T01:45:10.670Z,5.67
2017-10-31T01:47:37.941Z,4.23
2017-10-31T01:50:05.078Z,3.60
2017-10-31T01:52:31.357Z,5.10
2017-10-31T01:54:58.403Z,7.77
2017-10-31T01:57:25.486Z,6.93
2017-10-31T01:59:51.784Z,7.70
2017-10-31T02:02:18.823Z,4.87
2017-10-31T02:04:45.877Z,7.23
2017-10-31T02:07:12.923Z,8.00
2017-10-31T02:09:40.362Z,4.00
2017-10-31T02:12:07.200Z,7.67
2017-10-31T02:14:33.569Z,5.03
2017-10-31T02:17:00.616Z,5.47
2017-10-31T02:19:27.667Z,3.27
2017-10-31T02:21:53.985Z,5.63
2017-10-31T02:24:21.060Z,4.27
2017-10-31T02:26:47.395Z,5.23
2017-10-31T02:29:13.721Z,5.13
2017-10-31T02:31:40.035Z,3.90
2017-10-31T02:34:06.350Z,6.33
2017-10-31T02:36:33.381Z,7.70
2017-10-31T02:39:13.329Z,7.40
2017-10-31T02:41:39.625Z,5.37
2017-10-31T02:44:05.958Z,8.37
2017-10-31T02:46:32.276Z,5.53
2017-10-31T02:48:58.569Z,6.87
2017-10-31T02:51:25.628Z,6.63
2017-10-31T02:53:51.952Z,4.73
2017-10-31T02:56:18.271Z,10.20
2017-10-31T02:58:45.129Z,3.93
2017-10-31T03:01:11.449Z,5.43
2017-10-31T03:03:38.498Z,7.30
2017-10-31T03:06:05.558Z,3.80
2017-10-31T03:08:31.863Z,5.13
2017-10-31T03:10:58.919Z,3.77
2017-10-31T03:13:25.983Z,4.63
2017-10-31T03:15:53.127Z,4.00
2017-10-31T03:18:19.632Z,3.77
2017-10-31T03:20:45.946Z,6.53
2017-10-31T03:23:13.738Z,4.33
2017-10-31T03:25:40.786Z,5.10
2017-10-31T03:28:07.075Z,7.33
2017-10-31T03:30:33.431Z,6.80
2017-10-31T03:33:00.509Z,5.00
2017-10-31T03:35:26.827Z,4.83
2017-10-31T03:37:53.886Z,7.03
2017-10-31T03:40:20.191Z,4.93
2017-10-31T03:42:47.248Z,6.27
2017-10-31T03:45:14.296Z,11.37
2017-10-31T03:47:41.364Z,6.70
2017-10-31T03:50:07.689Z,4.60
2017-10-31T03:52:34.008Z,4.47
2017-10-31T03:55:00.362Z,4.77
2017-10-31T03:57:26.708Z,4.60
2017-10-31T03:59:53.027Z,9.70
2017-10-31T04:02:19.362Z,8.20
2017-10-31T04:04:45.672Z,6.03
2017-10-31T04:07:11.993Z,5.03
2017-10-31T04:09:39.039Z,5.87
2017-10-31T04:12:06.109Z,4.03
2017-10-31T04:14:32.423Z,7.37
2017-10-31T04:16:58.716Z,5.47
2017-10-31T04:19:25.000Z,5.90
2017-10-31T04:21:51.280Z,12.50
2017-10-31T04:24:17.618Z,7.93
2017-10-31T04:26:44.929Z,6.97
2017-10-31T04:29:11.255Z,5.70
2017-10-31T04:31:37.547Z,6.20
2017-10-31T04:34:04.622Z,6.87
2017-10-31T04:36:30.924Z,7.00
2017-10-31T04:38:57.991Z,9.00
2017-10-31T04:41:24.267Z,7.20
2017-10-31T04:43:50.578Z,7.27
2017-10-31T04:46:16.891Z,8.30
2017-10-31T04:48:43.211Z,9.97
2017-10-31T04:51:10.254Z,11.50
2017-10-31T04:53:36.559Z,10.50
2017-10-31T04:56:03.609Z,13.23
2017-10-31T04:58:30.654Z,15.03
2017-10-31T05:00:57.745Z,13.40
2017-10-31T05:03:24.062Z,16.57
2017-10-31T05:05:50.371Z,12.40
2017-10-31T05:08:18.322Z,13.50
2017-10-31T05:10:45.690Z,11.80
2017-10-31T05:13:11.967Z,16.00
2017-10-31T05:15:38.262Z,14.50
2017-10-31T05:18:05.288Z,13.30
2017-10-31T05:20:32.330Z,17.40
2017-10-31T05:22:59.388Z,14.30
2017-10-31T05:25:26.420Z,17.80
2017-10-31T05:27:52.719Z,16.93
2017-10-31T05:30:19.781Z,15.00
2017-10-31T05:32:46.101Z,19.30
2017-10-31T05:35:12.387Z,21.50
2017-10-31T05:37:39.406Z,18.67
2017-10-31T05:40:05.676Z,18.27
2017-10-31T05:42:31.986Z,19.53
2017-10-31T05:44:58.999Z,21.33
2017-10-31T05:47:25.291Z,17.43
2017-10-31T05:49:51.561Z,21.80
2017-10-31T05:52:17.843Z,17.90
2017-10-31T05:54:44.122Z,20.57
2017-10-31T05:57:10.422Z,22.23
2017-10-31T05:59:37.615Z,19.90
2017-10-31T06:02:03.886Z,18.53
2017-10-31T06:04:30.169Z,18.87
2017-10-31T06:06:56.440Z,16.20
2017-10-31T06:09:22.734Z,24.37
2017-10-31T06:11:49.765Z,19.43
2017-10-31T06:14:16.091Z,23.90
2017-10-31T06:16:42.392Z,21.20
2017-10-31T06:19:08.694Z,20.47
2017-10-31T06:21:41.994Z,23.10
2017-10-31T06:24:21.391Z,25.10
2017-10-31T06:26:54.445Z,22.47
2017-10-31T06:29:27.054Z,18.27
2017-10-31T06:31:59.486Z,21.97
2017-10-31T06:34:25.813Z,21.67
2017-10-31T06:36:52.079Z,20.90
2017-10-31T06:39:18.382Z,18.90
2017-10-31T06:41:44.652Z,25.73
2017-10-31T06:44:10.992Z,20.40
2017-10-31T06:46:38.035Z,23.93
2017-10-31T06:49:04.391Z,20.67
2017-10-31T06:51:30.690Z,20.07
2017-10-31T06:53:57.730Z,20.67
2017-10-31T06:56:24.016Z,22.70
2017-10-31T06:58:50.759Z,17.27
2017-10-31T07:01:17.055Z,19.90
2017-10-31T07:03:44.088Z,18.90
2017-10-31T07:06:10.404Z,19.93
2017-10-31T07:08:36.715Z,19.70
2017-10-31T07:11:03.013Z,21.00
2017-10-31T07:13:29.449Z,22.17
2017-10-31T07:15:55.773Z,18.30
2017-10-31T07:18:22.063Z,18.03
2017-10-31T07:20:48.376Z,19.77
2017-10-31T07:23:14.681Z,18.60
2017-10-31T07:25:40.989Z,19.60
2017-10-31T07:28:07.291Z,19.30
2017-10-31T07:30:33.597Z,23.07
2017-10-31T07:32:59.889Z,23.67
2017-10-31T07:35:26.205Z,19.83
2017-10-31T07:37:52.623Z,19.50
2017-10-31T07:40:18.974Z,19.77
2017-10-31T07:42:45.277Z,20.53
2017-10-31T07:45:12.331Z,17.33
2017-10-31T07:47:39.370Z,18.60
2017-10-31T07:50:05.790Z,16.67
2017-10-31T07:52:32.247Z,17.10
2017-10-31T07:55:00.474Z,19.17
2017-10-31T07:57:27.451Z,17.37
2017-10-31T07:59:54.620Z,19.27
2017-10-31T08:02:21.085Z,18.53
2017-10-31T08:07:46.942Z,15.83
2017-10-31T08:10:13.351Z,14.20
2017-10-31T08:12:39.795Z,13.80
2017-10-31T08:15:06.146Z,16.07
2017-10-31T08:17:32.498Z,12.27
2017-10-31T08:19:58.810Z,16.47
2017-10-31T08:22:25.146Z,13.50
2017-10-31T08:24:51.449Z,11.07
2017-10-31T08:27:17.770Z,14.57
2017-10-31T08:29:44.120Z,12.43
2017-10-31T08:32:10.464Z,15.93
2017-10-31T08:34:36.799Z,12.80
2017-10-31T08:37:03.160Z,20.93
2017-10-31T08:39:30.946Z,12.90
2017-10-31T08:41:57.350Z,13.90
2017-10-31T08:44:23.647Z,14.57
2017-10-31T08:46:49.974Z,13.83
2017-10-31T08:49:16.345Z,14.47
2017-10-31T08:51:42.686Z,13.13
2017-10-31T08:54:08.994Z,17.43
2017-10-31T08:56:35.322Z,17.90
2017-10-31T08:59:01.655Z,16.70
2017-10-31T09:01:27.975Z,15.30
2017-10-31T09:03:54.277Z,17.13
2017-10-31T09:06:20.591Z,14.10
2017-10-31T09:08:47.770Z,15.57
2017-10-31T09:11:14.143Z,15.13
2017-10-31T09:13:41.348Z,14.33
2017-10-31T09:16:08.640Z,15.87
2017-10-31T09:18:35.471Z,17.07
2017-10-31T09:21:01.974Z,18.17
2017-10-31T09:23:28.444Z,17.37
2017-10-31T09:25:54.882Z,15.53
2017-10-31T09:28:21.977Z,16.63
2017-10-31T09:30:48.337Z,16.93
2017-10-31T09:33:14.679Z,20.57
2017-10-31T09:35:41.072Z,15.40
2017-10-31T09:38:07.427Z,17.53
2017-10-31T09:40:33.786Z,17.07
2017-10-31T09:43:00.110Z,16.37
2017-10-31T09:45:26.430Z,18.50
2017-10-31T09:47:52.799Z,19.57
2017-10-31T09:50:19.111Z,18.30
2017-10-31T09:52:45.434Z,16.63
2017-10-31T09:55:11.739Z,16.20
2017-10-31T09:57:38.134Z,15.93
2017-10-31T10:00:05.162Z,15.17
2017-10-31T10:02:32.239Z,15.73
2017-10-31T10:04:58.536Z,16.00
2017-10-31T10:07:24.874Z,15.23
2017-10-31T10:09:51.911Z,17.30
2017-10-31T10:12:18.239Z,16.10
2017-10-31T10:14:45.381Z,18.27
2017-10-31T10:17:11.716Z,15.63
2017-10-31T10:19:38.023Z,16.83
2017-10-31T10:22:04.364Z,17.10
2017-10-31T10:24:30.675Z,19.03
2017-10-31T10:26:57.054Z,16.67
2017-10-31T10:29:23.389Z,15.83
2017-10-31T10:31:50.463Z,16.40
2017-10-31T10:34:16.830Z,16.27
2017-10-31T10:36:43.226Z,16.87
2017-10-31T10:39:09.586Z,14.70
2017-10-31T10:41:35.880Z,15.60
2017-10-31T10:44:02.249Z,13.77
2017-10-31T10:46:28.567Z,13.00
2017-10-31T10:48:54.909Z,13.53
2017-10-31T10:51:21.238Z,12.07
2017-10-31T10:53:47.550Z,12.20
2017-10-31T10:56:13.942Z,11.73
2017-10-31T10:58:41.010Z,12.33
2017-10-31T11:01:07.338Z,12.23
2017-10-31T11:03:33.710Z,12.40
2017-10-31T11:06:00.128Z,10.20
2017-10-31T11:08:26.502Z,10.43
2017-10-31T11:10:53.571Z,9.53
2017-10-31T11:13:19.957Z,9.33
2017-10-31T11:15:46.290Z,8.50
2017-10-31T11:18:19.685Z,7.43
2017-10-31T11:20:46.005Z,7.70
2017-10-31T11:23:12.345Z,8.37
2017-10-31T11:25:38.733Z,8.10
2017-10-31T11:28:06.267Z,7.90
2017-10-31T11:30:32.641Z,7.90
2017-10-31T11:32:58.987Z,6.93
2017-10-31T11:35:25.356Z,7.10
2017-10-31T11:37:51.713Z,6.30
2017-10-31T11:40:18.083Z,5.60
2017-10-31T11:42:45.208Z,6.30
2017-10-31T11:45:12.360Z,5.93
2017-10-31T11:47:38.739Z,5.30
2017-10-31T11:50:05.221Z,6.30
2017-10-31T11:52:31.651Z,6.73
2017-10-31T11:54:58.126Z,6.33
2017-10-31T11:57:25.253Z,5.77
2017-10-31T11:59:51.570Z,5.70
2017-10-31T12:02:17.887Z,5.17
2017-10-31T12:04:44.246Z,5.60
2017-10-31T12:07:10.813Z,6.50
2017-10-31T12:09:37.234Z,7.90
2017-10-31T12:12:04.342Z,8.03
2017-10-31T12:14:30.743Z,9.00
2017-10-31T12:16:57.127Z,9.13
2017-10-31T12:19:23.453Z,9.13
2017-10-31T12:21:49.766Z,9.87
2017-10-31T12:24:16.133Z,9.07
2017-10-31T12:26:42.524Z,9.40
2017-10-31T12:29:08.844Z,8.90
2017-10-31T12:31:35.206Z,9.03
2017-10-31T12:34:01.533Z,8.83
2017-10-31T12:36:27.901Z,9.00
2017-10-31T12:38:55.021Z,8.77
2017-10-31T12:41:21.359Z,8.40
2017-10-31T12:43:47.730Z,8.50
2017-10-31T12:46:14.808Z,6.73
2017-10-31T12:48:41.183Z,6.77
2017-10-31T12:51:07.534Z,5.93
2017-10-31T12:53:34.607Z,6.10
2017-10-31T12:56:00.952Z,5.47
2017-10-31T12:58:27.310Z,6.20
2017-10-31T13:00:53.677Z,5.63
2017-10-31T13:03:20.789Z,5.87
2017-10-31T13:05:47.123Z,6.50
2017-10-31T13:08:13.527Z,6.07
2017-10-31T13:10:39.867Z,6.23
2017-10-31T13:13:06.234Z,7.80
2017-10-31T13:15:32.571Z,6.77
2017-10-31T13:17:59.677Z,8.27
2017-10-31T13:20:26.049Z,8.37
2017-10-31T13:22:53.140Z,9.33
2017-10-31T13:25:19.483Z,9.97
2017-10-31T13:27:46.885Z,9.33
2017-10-31T13:30:15.291Z,11.40
2017-10-31T13:32:42.918Z,11.67
2017-10-31T13:35:11.019Z,11.13
2017-10-31T13:37:39.070Z,11.20
2017-10-31T13:40:06.639Z,12.13
2017-10-31T13:42:34.992Z,11.67
2017-10-31T13:45:01.598Z,12.47
2017-10-31T13:47:28.991Z,12.47
2017-10-31T13:49:56.548Z,13.97
2017-10-31T13:52:24.006Z,12.50
2017-10-31T13:54:50.429Z,12.87
2017-10-31T13:57:16.729Z,13.10
2017-10-31T13:59:43.107Z,12.50
2017-10-31T14:02:11.173Z,12.40
2017-10-31T14:04:40.018Z,12.30
2017-10-31T14:07:06.867Z,15.03
2017-10-31T14:09:34.889Z,12.87
2017-10-31T14:12:03.252Z,13.50
2017-10-31T14:14:29.795Z,12.20
2017-10-31T14:16:56.111Z,11.90
2017-10-31T14:19:23.274Z,11.20
2017-10-31T14:21:50.726Z,13.10
2017-10-31T14:24:17.231Z,13.37
2017-10-31T14:26:43.542Z,12.60
2017-10-31T14:29:09.832Z,14.20
2017-10-31T14:31:36.922Z,13.17
2017-10-31T14:34:03.241Z,13.07
2017-10-31T14:36:29.541Z,12.30
2017-10-31T14:38:56.595Z,12.83
2017-10-31T14:41:23.634Z,14.13
2017-10-31T14:43:50.126Z,13.33
2017-10-31T14:46:16.463Z,12.93
2017-10-31T14:48:42.781Z,13.10
2017-10-31T14:51:09.126Z,13.70
2017-10-31T14:53:35.438Z,13.90
2017-10-31T14:56:01.743Z,13.77
2017-10-31T14:58:28.094Z,14.00
2017-10-31T15:00:54.404Z,14.33
2017-10-31T15:03:20.725Z,13.30
2017-10-31T15:05:47.052Z,18.77
2017-10-31T15:08:14.099Z,14.33
2017-10-31T15:10:41.149Z,14.33
2017-10-31T15:13:08.207Z,14.73
2017-10-31T15:15:34.536Z,14.97
2017-10-31T15:18:00.925Z,14.43
2017-10-31T15:20:27.255Z,14.17
2017-10-31T15:22:53.586Z,14.97
2017-10-31T15:25:19.887Z,15.53
2017-10-31T15:27:46.218Z,13.63
2017-10-31T15:30:12.497Z,15.90
2017-10-31T15:32:38.792Z,14.43
2017-10-31T15:35:05.106Z,14.50
2017-10-31T15:37:32.162Z,13.70
2017-10-31T15:39:58.487Z,13.53
2017-10-31T15:42:24.847Z,13.97
2017-10-31T15:44:51.141Z,14.03
2017-10-31T15:47:17.483Z,13.73
2017-10-31T15:49:43.793Z,14.97
2017-10-31T15:52:10.088Z,14.13
2017-10-31T15:54:37.127Z,13.87
2017-10-31T15:57:03.460Z,12.67
2017-10-31T15:59:29.786Z,12.47
2017-10-31T16:01:56.076Z,13.17
2017-10-31T16:04:22.379Z,12.47
2017-10-31T16:06:48.666Z,13.03
2017-10-31T16:09:14.965Z,11.77
2017-10-31T16:11:41.990Z,13.70
2017-10-31T16:14:08.303Z,16.23
2017-10-31T16:16:34.618Z,12.50
2017-10-31T16:19:01.671Z,12.33
2017-10-31T16:21:28.703Z,10.60
2017-10-31T16:23:55.003Z,12.07
2017-10-31T16:26:21.292Z,12.20
2017-10-31T16:28:47.599Z,12.47
2017-10-31T16:31:14.644Z,11.50
2017-10-31T16:33:41.725Z,13.63
2017-10-31T16:36:08.025Z,11.33
2017-10-31T16:38:35.070Z,13.97
2017-10-31T16:41:02.171Z,9.70
2017-10-31T16:43:28.538Z,9.80
2017-10-31T16:45:54.850Z,9.33
2017-10-31T16:48:21.169Z,9.60
2017-10-31T16:50:47.460Z,10.63
2017-10-31T16:53:14.482Z,10.93
2017-10-31T16:55:40.789Z,10.83
2017-10-31T16:58:07.081Z,9.63
2017-10-31T17:00:33.377Z,9.70
2017-10-31T17:03:00.418Z,9.27
2017-10-31T17:05:26.714Z,8.77
2017-10-31T17:07:53.018Z,11.13
2017-10-31T17:10:19.327Z,9.07
2017-10-31T17:12:46.342Z,8.47
2017-10-31T17:15:12.672Z,9.10
2017-10-31T17:17:38.966Z,12.53
2017-10-31T17:20:05.292Z,10.27
2017-10-31T17:22:31.592Z,8.57
2017-10-31T17:24:58.616Z,13.57
2017-10-31T17:27:25.658Z,9.20
2017-10-31T17:29:51.964Z,9.03
2017-10-31T17:32:18.283Z,10.90
2017-10-31T17:34:44.664Z,10.77
2017-10-31T17:37:11.740Z,10.93
2017-10-31T17:39:38.017Z,9.30
2017-10-31T17:42:04.315Z,7.67
2017-10-31T17:44:30.608Z,9.80
2017-10-31T17:46:56.932Z,11.33
2017-10-31T17:49:23.974Z,10.30
2017-10-31T17:51:51.037Z,14.03
2017-10-31T17:54:18.087Z,9.67
2017-10-31T17:56:44.403Z,11.57
2017-10-31T17:59:10.901Z,11.23
2017-10-31T18:01:38.923Z,9.07
2017-10-31T18:04:05.222Z,11.27
2017-10-31T18:06:31.514Z,10.83
2017-10-31T18:08:57.826Z,10.83
2017-10-31T18:11:24.122Z,10.10
2017-10-31T18:13:51.181Z,12.00
2017-10-31T18:16:18.235Z,13.40
2017-10-31T18:18:44.556Z,10.20
2017-10-31T18:21:11.589Z,10.93
2017-10-31T18:23:38.693Z,10.87
2017-10-31T18:26:05.065Z,11.60
2017-10-31T18:28:32.172Z,12.80
2017-10-31T18:30:58.575Z,9.73
2017-10-31T18:33:25.025Z,10.60
2017-10-31T18:35:51.917Z,10.77
2017-10-31T18:38:19.771Z,15.80
2017-10-31T18:40:46.223Z,11.33
2017-10-31T18:43:12.740Z,12.40
2017-10-31T18:45:39.047Z,10.40
2017-10-31T18:48:05.345Z,13.70
2017-10-31T18:50:31.659Z,12.23
2017-10-31T18:52:58.699Z,10.43
2017-10-31T18:55:25.023Z,14.10
2017-10-31T18:57:51.406Z,11.37
2017-10-31T19:00:17.773Z,13.60
2017-10-31T19:02:44.181Z,12.10
2017-10-31T19:05:10.715Z,12.90
2017-10-31T19:07:37.037Z,10.83
2017-10-31T19:10:03.495Z,11.73
2017-10-31T19:12:29.993Z,12.60
2017-10-31T19:14:56.317Z,12.10
2017-10-31T19:17:22.946Z,11.80
2017-10-31T19:19:49.265Z,12.73
2017-10-31T19:22:15.812Z,10.67
2017-10-31T19:24:42.201Z,14.07
2017-10-31T19:27:08.526Z,12.50
2017-10-31T19:29:34.925Z,14.67
2017-10-31T19:32:02.890Z,15.20
2017-10-31T19:34:29.224Z,12.90
2017-10-31T19:36:55.599Z,13.30
2017-10-31T19:39:21.901Z,12.03
2017-10-31T19:41:48.268Z,11.60
2017-10-31T19:44:14.806Z,11.77
2017-10-31T19:46:41.289Z,12.50
2017-10-31T19:49:07.703Z,14.57
2017-10-31T19:51:34.000Z,14.63
2017-10-31T19:54:00.395Z,15.70
2017-10-31T19:56:26.713Z,17.63
2017-10-31T19:58:53.023Z,14.80
2017-10-31T20:01:19.346Z,13.93
2017-10-31T20:03:45.730Z,17.20
2017-10-31T20:06:12.069Z,16.87
2017-10-31T20:08:38.410Z,16.47
2017-10-31T20:11:04.844Z,15.63
2017-10-31T20:13:31.362Z,18.30
2017-10-31T20:15:57.661Z,18.10
2017-10-31T20:18:24.101Z,16.30
2017-10-31T20:20:50.440Z,19.77
2017-10-31T20:23:16.777Z,20.20
2017-10-31T20:25:43.186Z,23.33
2017-10-31T20:28:09.520Z,22.87
2017-10-31T20:30:35.829Z,25.53
2017-10-31T20:33:02.134Z,23.17
2017-10-31T20:35:29.189Z,23.17
2017-10-31T20:37:56.242Z,24.23
2017-10-31T20:40:23.286Z,26.23
2017-10-31T20:42:50.317Z,23.43
2017-10-31T20:45:18.102Z,26.73
2017-10-31T20:47:45.124Z,27.70
2017-10-31T20:50:12.928Z,30.43
2017-10-31T20:52:39.328Z,29.63
2017-10-31T20:55:05.641Z,28.40
2017-10-31T20:57:31.877Z,27.10
2017-10-31T20:59:58.971Z,29.40
2017-10-31T21:02:25.310Z,32.33
2017-10-31T21:04:51.617Z,29.30
2017-10-31T21:07:17.921Z,30.73
2017-10-31T21:09:44.234Z,34.13
2017-10-31T21:12:10.603Z,34.07
2017-10-31T21:14:37.647Z,35.70
2017-10-31T21:17:03.998Z,34.73
2017-10-31T21:19:30.318Z,39.27
2017-10-31T21:21:56.614Z,36.60
2017-10-31T21:24:22.897Z,42.17
2017-10-31T21:26:49.194Z,37.50
2017-10-31T21:29:15.498Z,40.80
2017-10-31T21:31:42.575Z,41.60
2017-10-31T21:34:08.897Z,42.87
2017-10-31T21:36:35.984Z,44.63
2017-10-31T21:39:02.361Z,44.93
2017-10-31T21:41:29.430Z,48.80
2017-10-31T21:43:56.714Z,45.73
2017-10-31T21:46:23.045Z,49.30
2017-10-31T21:48:49.358Z,47.20
2017-10-31T21:51:15.674Z,42.83
2017-10-31T21:53:42.780Z,50.43
2017-10-31T21:56:09.147Z,45.50
2017-10-31T21:58:36.255Z,50.20
2017-10-31T22:01:02.677Z,50.60
2017-10-31T22:03:28.985Z,50.10
2017-10-31T22:05:55.350Z,51.03
2017-10-31T22:08:21.649Z,51.80
2017-10-31T22:10:47.942Z,50.60
2017-10-31T22:13:14.299Z,55.70
2017-10-31T22:15:40.596Z,59.47
2017-10-31T22:18:06.926Z,56.37
2017-10-31T22:20:33.973Z,61.40
2017-10-31T22:23:00.289Z,63.73
2017-10-31T22:25:26.589Z,55.43
2017-10-31T22:27:52.890Z,62.40
2017-10-31T22:30:19.175Z,59.70
2017-10-31T22:32:45.481Z,55.03
2017-10-31T22:35:11.782Z,61.37
2017-10-31T22:37:38.076Z,64.50
2017-10-31T22:40:05.151Z,63.87
2017-10-31T22:42:31.466Z,68.13
2017-10-31T22:44:58.566Z,67.13
2017-10-31T22:47:24.899Z,69.57
2017-10-31T22:49:51.180Z,65.80
2017-10-31T22:52:18.206Z,64.90
2017-10-31T22:54:45.283Z,65.67
2017-10-31T22:57:11.578Z,67.07
2017-10-31T22:59:37.866Z,61.30
2017-10-31T23:02:04.164Z,66.77
2017-10-31T23:04:30.476Z,62.77
2017-10-31T23:06:57.526Z,65.50
2017-10-31T23:09:24.571Z,67.53
2017-10-31T23:11:50.859Z,65.23
2017-10-31T23:14:25.225Z,66.50
2017-10-31T23:16:51.511Z,76.57
2017-10-31T23:19:17.818Z,73.63
2017-10-31T23:21:44.113Z,72.43
2017-10-31T23:24:11.171Z,73.57
2017-10-31T23:26:38.206Z,71.03
2017-10-31T23:29:06.005Z,71.43
2017-10-31T23:31:32.301Z,72.67
2017-10-31T23:33:59.336Z,74.80
2017-10-31T23:36:25.640Z,75.60
2017-10-31T23:38:51.921Z,75.10
2017-10-31T23:41:18.964Z,83.07
2017-10-31T23:43:45.999Z,75.63
2017-10-31T23:46:12.304Z,78.60
2017-10-31T23:48:38.606Z,75.50
2017-10-31T23:51:04.927Z,87.87
2017-10-31T23:53:31.207Z,77.87
2017-10-31T23:55:58.258Z,80.80
2017-10-31T23:58:25.311Z,76.83
